createdAt,value
2022-10-25T00:01:30.588Z,13.16
2022-10-25T00:03:58.307Z,13.16
2022-10-25T00:06:26.772Z,13.17
2022-10-25T00:08:53.988Z,13.23
2022-10-25T00:11:31.298Z,13.33
2022-10-25T00:14:02.203Z,13.36
2022-10-25T00:16:34.603Z,13.45
2022-10-25T00:19:01.664Z,13.48
2022-10-25T00:21:28.675Z,13.52
2022-10-25T00:23:55.727Z,13.53
2022-10-25T00:26:22.811Z,13.50
2022-10-25T00:28:54.947Z,13.49
2022-10-25T00:31:23.757Z,13.50
2022-10-25T00:33:50.896Z,13.54
2022-10-25T00:36:21.564Z,13.59
2022-10-25T00:38:48.923Z,13.62
2022-10-25T00:41:22.248Z,13.67
2022-10-25T00:43:55.906Z,13.69
2022-10-25T00:46:31.674Z,13.73
2022-10-25T00:49:10.715Z,13.77
2022-10-25T00:51:59.283Z,13.77
2022-10-25T00:54:38.175Z,13.82
2022-10-25T00:57:16.096Z,13.82
2022-10-25T00:59:46.393Z,13.81
2022-10-25T01:02:16.462Z,13.76
2022-10-25T01:04:44.160Z,13.72
2022-10-25T01:07:11.797Z,13.65
2022-10-25T01:09:41.227Z,13.58
2022-10-25T01:12:08.287Z,13.56
2022-10-25T01:14:43.206Z,13.57
2022-10-25T01:17:41.475Z,13.58
2022-10-25T01:21:01.081Z,13.57
2022-10-25T01:24:25.571Z,13.56
2022-10-25T01:27:15.629Z,13.55
2022-10-25T01:30:22.907Z,13.49
2022-10-25T01:33:14.465Z,13.43
2022-10-25T01:35:58.760Z,13.37
2022-10-25T01:38:59.767Z,13.38
2022-10-25T01:41:53.884Z,13.38
2022-10-25T01:44:42.479Z,13.40
2022-10-25T01:47:41.250Z,13.44
2022-10-25T01:50:21.238Z,13.50
2022-10-25T01:52:48.246Z,13.56
2022-10-25T01:55:16.364Z,13.60
2022-10-25T01:58:06.010Z,13.67
2022-10-25T02:00:52.931Z,13.69
2022-10-25T02:03:45.152Z,13.75
2022-10-25T02:06:28.802Z,13.77
2022-10-25T02:09:17.747Z,13.81
2022-10-25T02:11:45.020Z,13.82
2022-10-25T02:14:28.589Z,13.88
2022-10-25T02:17:15.627Z,13.90
2022-10-25T02:19:50.901Z,13.90
2022-10-25T02:22:23.882Z,13.91
2022-10-25T02:24:53.525Z,13.94
2022-10-25T02:27:23.409Z,13.95
2022-10-25T02:29:54.126Z,13.96
2022-10-25T02:32:21.888Z,13.97
2022-10-25T02:34:50.556Z,13.98
2022-10-25T02:37:18.209Z,14.00
2022-10-25T02:39:46.490Z,14.02
2022-10-25T02:42:13.486Z,14.03
2022-10-25T02:44:40.572Z,14.02
2022-10-25T02:47:08.084Z,14.04
2022-10-25T02:49:35.197Z,14.04
2022-10-25T02:52:02.264Z,14.04
2022-10-25T02:54:29.264Z,14.05
2022-10-25T02:56:56.235Z,14.03
2022-10-25T02:59:23.403Z,14.01
2022-10-25T03:01:50.367Z,14.02
2022-10-25T03:04:17.637Z,14.01
2022-10-25T03:06:44.634Z,13.98
2022-10-25T03:09:11.648Z,13.99
2022-10-25T03:11:38.638Z,14.00
2022-10-25T03:14:05.698Z,13.98
2022-10-25T03:16:32.728Z,13.98
2022-10-25T03:18:59.987Z,13.98
2022-10-25T03:21:27.084Z,13.96
2022-10-25T03:23:54.177Z,13.94
2022-10-25T03:26:22.542Z,13.94
2022-10-25T03:28:49.729Z,13.94
2022-10-25T03:31:18.287Z,13.90
2022-10-25T03:33:45.391Z,13.90
2022-10-25T03:36:14.007Z,13.87
2022-10-25T03:38:41.056Z,13.80
2022-10-25T03:41:08.408Z,13.71
2022-10-25T03:43:35.909Z,13.64
2022-10-25T03:46:02.998Z,13.55
2022-10-25T03:48:30.062Z,13.45
2022-10-25T03:50:57.119Z,13.42
2022-10-25T03:53:24.113Z,13.40
2022-10-25T03:55:51.144Z,13.41
2022-10-25T03:58:19.691Z,13.40
2022-10-25T04:00:46.825Z,13.39
2022-10-25T04:03:14.788Z,13.39
2022-10-25T04:05:45.714Z,13.36
2022-10-25T04:08:12.655Z,13.31
2022-10-25T04:10:39.636Z,13.26
2022-10-25T04:13:06.717Z,13.20
2022-10-25T04:15:33.800Z,13.16
2022-10-25T04:18:00.747Z,13.10
2022-10-25T04:20:28.809Z,13.05
2022-10-25T04:22:57.358Z,13.01
2022-10-25T04:25:26.873Z,12.99
2022-10-25T04:27:54.987Z,12.96
2022-10-25T04:30:22.607Z,12.93
2022-10-25T04:32:50.205Z,12.89
2022-10-25T04:35:17.760Z,12.85
2022-10-25T04:37:45.817Z,12.78
2022-10-25T04:40:13.360Z,12.76
2022-10-25T04:42:42.151Z,12.70
2022-10-25T04:45:11.070Z,12.67
2022-10-25T04:47:38.824Z,12.63
2022-10-25T04:50:07.903Z,12.60
2022-10-25T04:52:35.840Z,12.57
2022-10-25T04:55:03.891Z,12.57
2022-10-25T04:57:32.559Z,12.62
2022-10-25T05:00:00.415Z,12.64
2022-10-25T05:02:28.316Z,12.66
2022-10-25T05:04:56.054Z,12.66
2022-10-25T05:07:24.995Z,12.64
2022-10-25T05:09:52.578Z,12.61
2022-10-25T05:12:40.269Z,12.60
2022-10-25T05:15:09.563Z,12.65
2022-10-25T05:17:38.337Z,12.66
2022-10-25T05:20:10.298Z,12.66
2022-10-25T05:22:37.869Z,12.66
2022-10-25T05:25:07.098Z,12.67
2022-10-25T05:27:40.289Z,12.67
2022-10-25T05:30:09.395Z,12.65
2022-10-25T05:32:38.604Z,12.65
2022-10-25T05:35:06.857Z,12.67
2022-10-25T05:37:34.780Z,12.64
2022-10-25T05:40:02.374Z,12.65
2022-10-25T05:42:30.116Z,12.64
2022-10-25T05:45:00.344Z,12.65
2022-10-25T05:47:28.615Z,12.63
2022-10-25T05:49:56.372Z,12.64
2022-10-25T05:52:24.014Z,12.62
2022-10-25T05:54:52.940Z,12.60
2022-10-25T05:57:21.060Z,12.58
2022-10-25T05:59:49.017Z,12.58
2022-10-25T06:02:17.108Z,12.60
2022-10-25T06:04:47.878Z,12.58
2022-10-25T06:07:20.043Z,12.57
2022-10-25T06:09:47.793Z,12.54
2022-10-25T06:12:15.554Z,12.51
2022-10-25T06:14:43.200Z,12.50
2022-10-25T06:17:13.244Z,12.50
2022-10-25T06:19:40.955Z,12.47
2022-10-25T06:22:08.568Z,12.50
2022-10-25T06:24:36.309Z,12.54
2022-10-25T06:27:03.913Z,12.55
2022-10-25T06:29:31.671Z,12.58
2022-10-25T06:31:59.443Z,12.61
2022-10-25T06:34:29.189Z,12.63
2022-10-25T06:36:56.695Z,12.68
2022-10-25T06:39:25.372Z,12.74
2022-10-25T06:41:52.977Z,12.79
2022-10-25T06:44:21.247Z,12.82
2022-10-25T06:49:39.062Z,12.95
2022-10-25T06:52:07.402Z,13.02
2022-10-25T06:54:36.770Z,13.09
2022-10-25T06:57:04.537Z,13.13
2022-10-25T06:59:32.654Z,13.18
2022-10-25T07:02:00.376Z,13.25
2022-10-25T07:04:32.755Z,13.28
2022-10-25T07:07:00.586Z,13.28
2022-10-25T07:09:28.634Z,13.28
2022-10-25T07:11:57.378Z,13.27
2022-10-25T07:14:25.988Z,13.24
2022-10-25T07:16:54.322Z,13.21
2022-10-25T07:19:24.473Z,13.17
2022-10-25T07:21:53.076Z,13.20
2022-10-25T07:24:21.032Z,13.18
2022-10-25T07:26:48.925Z,13.14
2022-10-25T07:29:17.696Z,13.14
2022-10-25T07:31:46.211Z,13.15
2022-10-25T07:34:34.015Z,13.17
2022-10-25T07:37:03.199Z,13.22
2022-10-25T07:39:30.712Z,13.24
2022-10-25T07:42:00.687Z,13.28
2022-10-25T07:44:27.871Z,13.32
2022-10-25T07:46:55.561Z,13.38
2022-10-25T07:49:23.132Z,13.43
2022-10-25T07:51:50.825Z,13.45
2022-10-25T07:54:18.219Z,13.47
2022-10-25T07:56:48.844Z,13.53
2022-10-25T07:59:19.265Z,13.62
2022-10-25T08:01:46.986Z,13.68
2022-10-25T08:04:14.625Z,13.71
2022-10-25T08:06:42.322Z,13.75
2022-10-25T08:09:14.752Z,13.84
2022-10-25T08:11:44.051Z,13.93
2022-10-25T08:14:12.275Z,13.98
2022-10-25T08:16:40.145Z,14.05
2022-10-25T08:19:12.450Z,14.16
2022-10-25T08:21:39.704Z,14.25
2022-10-25T08:24:07.062Z,14.34
2022-10-25T08:26:36.787Z,14.45
2022-10-25T08:29:04.494Z,14.59
2022-10-25T08:31:33.740Z,14.65
2022-10-25T08:34:00.967Z,14.71
2022-10-25T08:36:31.011Z,14.74
2022-10-25T08:38:59.941Z,14.78
2022-10-25T08:41:38.758Z,14.81
2022-10-25T08:44:23.711Z,14.82
2022-10-25T08:47:04.499Z,14.86
2022-10-25T08:50:03.567Z,14.94
2022-10-25T08:52:55.422Z,14.88
2022-10-25T08:55:32.428Z,14.98
2022-10-25T08:58:02.460Z,14.98
2022-10-25T09:00:37.554Z,15.05
2022-10-25T09:03:05.406Z,15.12
2022-10-25T09:05:45.397Z,15.25
2022-10-25T09:08:33.802Z,15.33
2022-10-25T09:11:20.120Z,15.37
2022-10-25T09:14:12.561Z,15.41
2022-10-25T09:17:04.168Z,15.42
2022-10-25T09:19:39.740Z,15.39
2022-10-25T09:22:26.972Z,15.36
2022-10-25T09:25:02.920Z,15.37
2022-10-25T09:28:01.413Z,15.37
2022-10-25T09:30:39.219Z,15.38
2022-10-25T09:35:54.686Z,15.43
2022-10-25T09:38:40.345Z,15.45
2022-10-25T09:41:19.349Z,15.51
2022-10-25T09:44:06.724Z,15.59
2022-10-25T09:46:56.875Z,15.60
2022-10-25T09:50:22.158Z,15.55
2022-10-25T09:53:17.679Z,15.52
2022-10-25T09:56:00.065Z,15.48
2022-10-25T09:58:31.969Z,15.50
2022-10-25T10:01:06.166Z,15.59
2022-10-25T10:03:36.338Z,15.71
2022-10-25T10:06:18.612Z,15.79
2022-10-25T10:09:02.651Z,16.00
2022-10-25T10:11:34.440Z,16.07
2022-10-25T10:14:40.403Z,16.10
2022-10-25T10:17:15.199Z,16.04
2022-10-25T10:19:44.000Z,15.95
2022-10-25T10:22:17.024Z,15.95
2022-10-25T10:24:57.899Z,15.97
2022-10-25T10:27:27.981Z,16.07
2022-10-25T10:30:02.652Z,16.12
2022-10-25T10:32:37.846Z,16.17
2022-10-25T10:35:28.014Z,16.23
2022-10-25T10:38:15.759Z,16.20
2022-10-25T10:40:45.631Z,16.18
2022-10-25T10:43:31.980Z,16.17
2022-10-25T10:46:08.016Z,16.18
2022-10-25T10:48:43.104Z,16.20
2022-10-25T10:51:42.950Z,16.28
2022-10-25T10:54:23.478Z,16.37
2022-10-25T10:57:03.096Z,16.38
2022-10-25T10:59:53.204Z,16.35
2022-10-25T11:02:26.627Z,16.28
2022-10-25T11:04:56.427Z,16.28
2022-10-25T11:07:35.854Z,16.35
2022-10-25T11:10:14.939Z,16.44
2022-10-25T11:12:44.158Z,16.57
2022-10-25T11:15:13.691Z,16.70
2022-10-25T11:17:54.740Z,16.90
2022-10-25T11:20:48.703Z,16.94
2022-10-25T11:23:23.974Z,16.96
2022-10-25T11:26:02.191Z,16.98
2022-10-25T11:28:54.761Z,17.00
2022-10-25T11:31:43.278Z,17.07
2022-10-25T11:34:37.912Z,17.08
2022-10-25T11:37:21.331Z,17.13
2022-10-25T11:40:09.767Z,17.11
2022-10-25T11:43:08.936Z,17.00
2022-10-25T11:45:46.963Z,16.88
2022-10-25T11:49:00.015Z,16.84
2022-10-25T11:52:11.341Z,16.92
2022-10-25T11:55:08.659Z,17.01
2022-10-25T11:58:03.160Z,17.13
2022-10-25T12:00:46.983Z,17.38
2022-10-25T12:03:33.159Z,17.81
2022-10-25T12:06:22.217Z,17.96
2022-10-25T12:09:10.556Z,18.21
2022-10-25T12:12:07.152Z,18.40
2022-10-25T12:14:41.252Z,18.58
2022-10-25T12:17:23.359Z,18.82
2022-10-25T12:19:55.865Z,19.02
2022-10-25T12:22:47.726Z,19.31
2022-10-25T12:25:34.309Z,19.28
2022-10-25T12:28:41.159Z,19.16
2022-10-25T12:31:21.553Z,18.97
2022-10-25T12:34:01.671Z,18.70
2022-10-25T12:36:38.817Z,18.50
2022-10-25T12:39:41.066Z,18.25
2022-10-25T12:42:50.819Z,18.06
2022-10-25T12:46:04.193Z,17.95
2022-10-25T12:48:59.100Z,17.83
2022-10-25T12:52:01.250Z,17.68
2022-10-25T12:54:37.901Z,17.52
2022-10-25T12:57:33.959Z,17.38
2022-10-25T13:00:12.618Z,17.28
2022-10-25T13:03:03.936Z,17.25
2022-10-25T13:06:13.054Z,17.15
2022-10-25T13:08:42.075Z,17.04
2022-10-25T13:11:10.827Z,17.03
2022-10-25T13:13:50.315Z,17.07
2022-10-25T13:16:33.187Z,17.15
2022-10-25T13:19:49.765Z,17.21
2022-10-25T13:22:39.961Z,17.20
2022-10-25T13:25:13.149Z,17.23
2022-10-25T13:28:15.495Z,17.36
2022-10-25T13:30:44.783Z,17.45
2022-10-25T13:33:22.636Z,17.52
2022-10-25T13:35:49.614Z,17.59
2022-10-25T13:38:25.444Z,17.58
2022-10-25T13:41:12.519Z,17.44
2022-10-25T13:44:02.497Z,17.35
2022-10-25T13:46:37.724Z,17.39
2022-10-25T13:49:29.919Z,17.50
2022-10-25T13:52:01.264Z,17.56
2022-10-25T13:54:48.350Z,17.62
2022-10-25T13:57:55.832Z,17.69
2022-10-25T14:00:36.668Z,17.58
2022-10-25T14:03:34.923Z,17.61
2022-10-25T14:06:08.605Z,17.61
2022-10-25T14:08:49.507Z,17.66
2022-10-25T14:11:27.327Z,17.70
2022-10-25T14:14:13.697Z,17.72
2022-10-25T14:16:53.005Z,17.73
2022-10-25T14:19:27.221Z,17.78
2022-10-25T14:21:55.278Z,17.76
2022-10-25T14:24:22.706Z,17.80
2022-10-25T14:26:56.376Z,17.83
2022-10-25T14:29:28.239Z,17.87
2022-10-25T14:31:57.255Z,17.88
2022-10-25T14:34:30.045Z,17.88
2022-10-25T14:36:58.953Z,17.85
2022-10-25T14:39:30.570Z,17.85
2022-10-25T14:42:03.440Z,17.91
2022-10-25T14:44:50.455Z,17.94
2022-10-25T14:47:33.768Z,17.95
2022-10-25T14:50:02.065Z,17.94
2022-10-25T14:52:31.383Z,17.97
2022-10-25T14:55:06.298Z,17.90
2022-10-25T14:57:34.643Z,17.90
2022-10-25T15:00:05.725Z,17.80
2022-10-25T15:02:37.295Z,17.79
2022-10-25T15:05:05.892Z,17.80
2022-10-25T15:07:41.186Z,17.77
2022-10-25T15:10:40.652Z,17.76
2022-10-25T15:13:16.096Z,17.63
2022-10-25T15:15:47.139Z,17.44
2022-10-25T15:18:35.482Z,17.29
2022-10-25T15:21:17.611Z,17.15
2022-10-25T15:24:14.869Z,17.01
2022-10-25T15:27:05.825Z,16.89
2022-10-25T15:29:42.210Z,16.83
2022-10-25T15:32:22.241Z,16.76
2022-10-25T15:34:56.207Z,16.68
2022-10-25T15:37:26.061Z,16.63
2022-10-25T15:39:55.829Z,16.55
2022-10-25T15:42:25.956Z,16.46
2022-10-25T15:44:52.976Z,16.35
2022-10-25T15:47:33.588Z,16.26
2022-10-25T15:50:10.003Z,16.15
2022-10-25T15:52:37.135Z,16.08
2022-10-25T15:55:27.194Z,16.01
2022-10-25T15:57:55.402Z,15.91
2022-10-25T16:00:28.059Z,15.82
2022-10-25T16:02:59.066Z,15.73
2022-10-25T16:05:33.090Z,15.63
2022-10-25T16:08:00.984Z,15.55
2022-10-25T16:10:29.624Z,15.44
2022-10-25T16:13:09.891Z,15.35
2022-10-25T16:15:37.449Z,15.27
2022-10-25T16:18:04.546Z,15.17
2022-10-25T16:20:32.432Z,15.09
2022-10-25T16:22:59.437Z,15.01
2022-10-25T16:25:32.836Z,14.93
2022-10-25T16:28:01.691Z,14.82
2022-10-25T16:30:36.550Z,14.75
2022-10-25T16:33:05.680Z,14.67
2022-10-25T16:35:33.008Z,14.59
2022-10-25T16:38:00.137Z,14.51
2022-10-25T16:40:27.697Z,14.43
2022-10-25T16:42:54.765Z,14.37
2022-10-25T16:45:30.622Z,14.31
2022-10-25T16:47:58.942Z,14.22
2022-10-25T16:50:29.090Z,14.16
2022-10-25T16:53:01.066Z,14.09
2022-10-25T16:55:30.627Z,14.03
2022-10-25T16:57:59.643Z,13.97
2022-10-25T17:00:29.147Z,13.94
2022-10-25T17:02:56.276Z,13.88
2022-10-25T17:05:28.616Z,13.83
2022-10-25T17:07:56.286Z,13.77
2022-10-25T17:10:23.570Z,13.72
2022-10-25T17:12:54.244Z,13.67
2022-10-25T17:15:22.880Z,13.61
2022-10-25T17:17:50.141Z,13.56
2022-10-25T17:20:17.895Z,13.51
2022-10-25T17:22:45.646Z,13.45
2022-10-25T17:25:12.824Z,13.41
2022-10-25T17:27:45.466Z,13.37
2022-10-25T17:30:16.385Z,13.32
2022-10-25T17:32:43.342Z,13.29
2022-10-25T17:35:11.560Z,13.22
2022-10-25T17:37:43.516Z,13.16
2022-10-25T17:40:12.319Z,13.11
2022-10-25T17:42:40.011Z,13.04
2022-10-25T17:45:07.790Z,12.97
2022-10-25T17:47:37.472Z,12.88
2022-10-25T17:50:05.688Z,12.79
2022-10-25T17:52:32.866Z,12.71
2022-10-25T17:55:01.400Z,12.66
2022-10-25T17:57:28.648Z,12.63
2022-10-25T17:59:58.081Z,12.58
2022-10-25T18:02:25.337Z,12.54
2022-10-25T18:05:08.544Z,12.48
2022-10-25T18:07:39.476Z,12.45
2022-10-25T18:10:06.763Z,12.40
2022-10-25T18:12:33.828Z,12.37
2022-10-25T18:15:00.874Z,12.33
2022-10-25T18:17:27.880Z,12.29
2022-10-25T18:19:54.922Z,12.23
2022-10-25T18:22:22.902Z,12.19
2022-10-25T18:24:49.920Z,12.14
2022-10-25T18:27:16.905Z,12.09
2022-10-25T18:29:43.876Z,12.04
2022-10-25T18:32:10.905Z,12.01
2022-10-25T18:34:37.972Z,11.96
2022-10-25T18:37:05.092Z,11.92
2022-10-25T18:39:32.179Z,11.91
2022-10-25T18:41:59.216Z,11.88
2022-10-25T18:44:26.226Z,11.82
2022-10-25T18:46:54.026Z,11.78
2022-10-25T18:49:21.032Z,11.74
2022-10-25T18:51:48.081Z,11.70
2022-10-25T18:54:15.067Z,11.65
2022-10-25T18:56:42.211Z,11.60
2022-10-25T18:59:10.437Z,11.57
2022-10-25T19:01:37.963Z,11.50
2022-10-25T19:04:05.363Z,11.46
2022-10-25T19:06:33.648Z,11.43
2022-10-25T19:09:02.868Z,11.42
2022-10-25T19:11:30.253Z,11.40
2022-10-25T19:13:57.521Z,11.39
2022-10-25T19:16:24.618Z,11.38
2022-10-25T19:18:52.158Z,11.36
2022-10-25T19:21:19.688Z,11.33
2022-10-25T19:23:47.347Z,11.32
2022-10-25T19:26:19.425Z,11.30
2022-10-25T19:28:48.140Z,11.25
2022-10-25T19:31:18.076Z,11.22
2022-10-25T19:33:50.474Z,11.19
2022-10-25T19:36:19.807Z,11.15
2022-10-25T19:38:50.216Z,11.11
2022-10-25T19:41:22.780Z,11.08
2022-10-25T19:43:50.690Z,11.03
2022-10-25T19:46:18.922Z,10.99
2022-10-25T19:48:46.381Z,10.95
2022-10-25T19:51:20.075Z,10.92
2022-10-25T19:53:47.491Z,10.86
2022-10-25T19:56:20.701Z,10.83
2022-10-25T19:58:48.717Z,10.81
2022-10-25T20:01:23.884Z,10.82
2022-10-25T20:03:54.670Z,10.81
2022-10-25T20:06:26.912Z,10.80
2022-10-25T20:08:57.656Z,10.77
2022-10-25T20:11:26.347Z,10.75
2022-10-25T20:13:55.839Z,10.70
2022-10-25T20:16:25.475Z,10.67
2022-10-25T20:18:53.060Z,10.63
2022-10-25T20:21:26.290Z,10.62
2022-10-25T20:23:58.344Z,10.59
2022-10-25T20:26:31.616Z,10.56
2022-10-25T20:29:02.773Z,10.53
2022-10-25T20:31:33.491Z,10.49
2022-10-25T20:34:02.564Z,10.48
2022-10-25T20:36:30.321Z,10.46
2022-10-25T20:38:59.346Z,10.45
2022-10-25T20:41:30.830Z,10.43
2022-10-25T20:44:00.788Z,10.38
2022-10-25T20:46:28.995Z,10.40
2022-10-25T20:48:58.236Z,10.39
2022-10-25T20:51:26.216Z,10.37
2022-10-25T20:53:53.629Z,10.35
2022-10-25T20:56:21.865Z,10.33
2022-10-25T20:58:49.008Z,10.33
2022-10-25T21:01:16.519Z,10.31
2022-10-25T21:03:48.691Z,10.30
2022-10-25T21:06:15.759Z,10.29
2022-10-25T21:08:42.788Z,10.27
2022-10-25T21:11:13.000Z,10.28
2022-10-25T21:13:40.690Z,10.25
2022-10-25T21:16:09.844Z,10.24
2022-10-25T21:18:37.632Z,10.24
2022-10-25T21:21:09.198Z,10.24
2022-10-25T21:23:36.727Z,10.21
2022-10-25T21:26:07.034Z,10.17
2022-10-25T21:28:40.382Z,10.17
2022-10-25T21:31:15.204Z,10.15
2022-10-25T21:33:49.892Z,10.14
2022-10-25T21:36:20.285Z,10.12
2022-10-25T21:38:49.428Z,10.12
2022-10-25T21:41:23.354Z,10.10
2022-10-25T21:43:50.978Z,10.06
2022-10-25T21:46:20.855Z,10.06
2022-10-25T21:48:50.499Z,10.06
2022-10-25T21:51:21.490Z,10.03
2022-10-25T21:53:48.621Z,10.02
2022-10-25T21:56:20.552Z,10.02
2022-10-25T21:58:49.817Z,10.00
2022-10-25T22:01:24.597Z,10.00
2022-10-25T22:03:52.595Z,10.00
2022-10-25T22:06:23.230Z,10.00
2022-10-25T22:08:50.752Z,10.00
2022-10-25T22:11:27.415Z,10.01
2022-10-25T22:14:02.331Z,10.01
2022-10-25T22:16:32.500Z,10.00
2022-10-25T22:19:13.334Z,9.99
2022-10-25T22:21:41.775Z,9.97
2022-10-25T22:24:11.368Z,9.97
2022-10-25T22:26:44.565Z,9.98
2022-10-25T22:29:13.991Z,9.97
2022-10-25T22:31:41.655Z,9.97
2022-10-25T22:34:10.503Z,9.95
2022-10-25T22:36:41.286Z,9.97
2022-10-25T22:39:10.485Z,9.94
2022-10-25T22:41:37.536Z,9.92
2022-10-25T22:44:04.956Z,9.91
2022-10-25T22:46:35.680Z,9.92
2022-10-25T22:49:08.949Z,9.91
2022-10-25T22:51:38.367Z,9.87
2022-10-25T22:54:05.785Z,9.87
2022-10-25T22:56:33.778Z,9.86
2022-10-25T22:59:04.473Z,9.86
2022-10-25T23:01:35.626Z,9.89
2022-10-25T23:04:09.385Z,9.86
2022-10-25T23:06:39.807Z,9.87
2022-10-25T23:09:11.006Z,9.88
2022-10-25T23:11:40.783Z,9.90
2022-10-25T23:14:13.334Z,9.90
2022-10-25T23:16:46.075Z,9.92
2022-10-25T23:19:13.194Z,9.93
2022-10-25T23:21:41.272Z,9.94
2022-10-25T23:24:09.659Z,9.98
2022-10-25T23:26:36.790Z,9.99
2022-10-25T23:29:05.021Z,10.03
2022-10-25T23:31:32.812Z,10.05
2022-10-25T23:34:01.089Z,10.06
2022-10-25T23:36:37.410Z,10.07
2022-10-25T23:39:07.934Z,10.08
2022-10-25T23:41:34.967Z,10.12
2022-10-25T23:44:02.287Z,10.14
2022-10-25T23:46:29.277Z,10.16
2022-10-25T23:48:56.490Z,10.15
2022-10-25T23:51:23.484Z,10.18
2022-10-25T23:53:50.477Z,10.20
2022-10-25T23:56:17.498Z,10.24
2022-10-25T23:58:45.592Z,10.27
